sensor_id;sensor_type;location;lat;lon;timestamp;temperature;humidity
1075;DHT22;526;51.392;12.448;2023-04-03T00:01:54;2.50;97.30
1075;DHT22;526;51.392;12.448;2023-04-03T00:04:20;2.50;97.30
1075;DHT22;526;51.392;12.448;2023-04-03T00:06:45;2.40;97.30
1075;DHT22;526;51.392;12.448;2023-04-03T00:09:11;2.40;97.30
1075;DHT22;526;51.392;12.448;2023-04-03T00:11:36;2.40;97.30
1075;DHT22;526;51.392;12.448;2023-04-03T00:14:02;2.40;97.30
1075;DHT22;526;51.392;12.448;2023-04-03T00:16:28;2.40;97.30
1075;DHT22;526;51.392;12.448;2023-04-03T00:18:53;2.30;97.30
1075;DHT22;526;51.392;12.448;2023-04-03T00:21:19;2.30;97.30
1075;DHT22;526;51.392;12.448;2023-04-03T00:23:45;2.20;97.30
1075;DHT22;526;51.392;12.448;2023-04-03T00:26:10;2.20;97.30
1075;DHT22;526;51.392;12.448;2023-04-03T00:28:36;2.20;97.30
1075;DHT22;526;51.392;12.448;2023-04-03T00:31:01;2.10;97.30
1075;DHT22;526;51.392;12.448;2023-04-03T00:33:27;2.10;97.30
1075;DHT22;526;51.392;12.448;2023-04-03T00:35:52;2.00;97.30
1075;DHT22;526;51.392;12.448;2023-04-03T00:38:18;2.00;97.30
1075;DHT22;526;51.392;12.448;2023-04-03T00:40:46;1.90;97.30
1075;DHT22;526;51.392;12.448;2023-04-03T00:43:15;1.90;97.30
1075;DHT22;526;51.392;12.448;2023-04-03T00:45:43;1.80;97.30
1075;DHT22;526;51.392;12.448;2023-04-03T00:48:16;1.80;97.30
1075;DHT22;526;51.392;12.448;2023-04-03T00:50:44;1.70;97.30
1075;DHT22;526;51.392;12.448;2023-04-03T00:53:21;1.70;97.30
1075;DHT22;526;51.392;12.448;2023-04-03T00:55:48;1.60;97.30
1075;DHT22;526;51.392;12.448;2023-04-03T00:58:19;1.60;97.30
1075;DHT22;526;51.392;12.448;2023-04-03T01:00:50;1.50;97.30
1075;DHT22;526;51.392;12.448;2023-04-03T01:03:21;1.50;97.30
1075;DHT22;526;51.392;12.448;2023-04-03T01:05:47;1.40;97.30
1075;DHT22;526;51.392;12.448;2023-04-03T01:08:12;1.40;97.30
1075;DHT22;526;51.392;12.448;2023-04-03T01:10:38;1.30;97.30
1075;DHT22;526;51.392;12.448;2023-04-03T01:13:22;1.30;97.30
1075;DHT22;526;51.392;12.448;2023-04-03T01:15:51;1.30;97.30
1075;DHT22;526;51.392;12.448;2023-04-03T01:18:16;1.20;97.30
1075;DHT22;526;51.392;12.448;2023-04-03T01:23:44;1.10;97.30
1075;DHT22;526;51.392;12.448;2023-04-03T01:26:13;1.10;97.30
1075;DHT22;526;51.392;12.448;2023-04-03T01:28:39;1.00;97.30
1075;DHT22;526;51.392;12.448;2023-04-03T01:33:54;0.90;97.30
1075;DHT22;526;51.392;12.448;2023-04-03T01:36:25;0.90;97.30
1075;DHT22;526;51.392;12.448;2023-04-03T01:38:52;0.90;97.30
1075;DHT22;526;51.392;12.448;2023-04-03T01:41:18;0.90;97.30
1075;DHT22;526;51.392;12.448;2023-04-03T01:43:44;0.80;97.30
1075;DHT22;526;51.392;12.448;2023-04-03T01:46:09;0.80;97.30
1075;DHT22;526;51.392;12.448;2023-04-03T01:48:35;0.70;97.30
1075;DHT22;526;51.392;12.448;2023-04-03T01:51:01;0.70;97.30
1075;DHT22;526;51.392;12.448;2023-04-03T01:53:26;0.70;97.30
1075;DHT22;526;51.392;12.448;2023-04-03T01:55:52;0.70;97.30
1075;DHT22;526;51.392;12.448;2023-04-03T01:58:17;0.60;97.30
1075;DHT22;526;51.392;12.448;2023-04-03T02:00:43;0.60;97.30
1075;DHT22;526;51.392;12.448;2023-04-03T02:03:08;0.60;97.30
1075;DHT22;526;51.392;12.448;2023-04-03T02:05:34;0.60;97.30
1075;DHT22;526;51.392;12.448;2023-04-03T02:07:59;0.60;97.30
1075;DHT22;526;51.392;12.448;2023-04-03T02:10:25;0.60;97.30
1075;DHT22;526;51.392;12.448;2023-04-03T02:12:51;0.60;97.30
1075;DHT22;526;51.392;12.448;2023-04-03T02:15:17;0.50;97.30
1075;DHT22;526;51.392;12.448;2023-04-03T02:17:42;0.50;97.30
1075;DHT22;526;51.392;12.448;2023-04-03T02:20:08;0.50;97.30
1075;DHT22;526;51.392;12.448;2023-04-03T02:22:34;0.50;97.30
1075;DHT22;526;51.392;12.448;2023-04-03T02:24:59;0.50;97.30
1075;DHT22;526;51.392;12.448;2023-04-03T02:27:25;0.50;97.30
1075;DHT22;526;51.392;12.448;2023-04-03T02:29:51;0.50;97.30
1075;DHT22;526;51.392;12.448;2023-04-03T02:32:16;0.50;97.30
1075;DHT22;526;51.392;12.448;2023-04-03T02:34:42;0.50;97.30
1075;DHT22;526;51.392;12.448;2023-04-03T02:37:07;0.50;97.30
1075;DHT22;526;51.392;12.448;2023-04-03T02:39:34;0.40;97.30
1075;DHT22;526;51.392;12.448;2023-04-03T02:41:59;0.40;97.30
1075;DHT22;526;51.392;12.448;2023-04-03T02:44:25;0.30;97.30
1075;DHT22;526;51.392;12.448;2023-04-03T02:46:50;0.30;97.30
1075;DHT22;526;51.392;12.448;2023-04-03T02:49:16;0.30;97.30
1075;DHT22;526;51.392;12.448;2023-04-03T02:51:42;0.20;97.30
1075;DHT22;526;51.392;12.448;2023-04-03T02:54:08;0.20;97.30
1075;DHT22;526;51.392;12.448;2023-04-03T02:56:33;0.10;97.30
1075;DHT22;526;51.392;12.448;2023-04-03T02:58:59;0.10;97.30
1075;DHT22;526;51.392;12.448;2023-04-03T03:01:25;0.10;97.30
1075;DHT22;526;51.392;12.448;2023-04-03T03:03:53;0.00;97.30
1075;DHT22;526;51.392;12.448;2023-04-03T03:06:19;0.00;97.30
1075;DHT22;526;51.392;12.448;2023-04-03T03:08:45;0.00;97.30
1075;DHT22;526;51.392;12.448;2023-04-03T03:11:11;-0.10;97.30
1075;DHT22;526;51.392;12.448;2023-04-03T03:13:36;-0.10;97.30
1075;DHT22;526;51.392;12.448;2023-04-03T03:16:02;-0.20;97.30
1075;DHT22;526;51.392;12.448;2023-04-03T03:18:29;-0.20;97.30
1075;DHT22;526;51.392;12.448;2023-04-03T03:21:00;-0.20;97.30
1075;DHT22;526;51.392;12.448;2023-04-03T03:23:27;-0.20;97.30
1075;DHT22;526;51.392;12.448;2023-04-03T03:26:01;-0.20;97.30
1075;DHT22;526;51.392;12.448;2023-04-03T03:28:30;-0.30;97.30
1075;DHT22;526;51.392;12.448;2023-04-03T03:30:56;-0.30;97.30
1075;DHT22;526;51.392;12.448;2023-04-03T03:33:22;-0.30;97.30
1075;DHT22;526;51.392;12.448;2023-04-03T03:35:48;-0.30;97.30
1075;DHT22;526;51.392;12.448;2023-04-03T03:38:13;-0.30;97.30
1075;DHT22;526;51.392;12.448;2023-04-03T03:40:39;-0.30;97.30
1075;DHT22;526;51.392;12.448;2023-04-03T03:43:04;-0.40;97.30
1075;DHT22;526;51.392;12.448;2023-04-03T03:45:30;-0.40;97.30
1075;DHT22;526;51.392;12.448;2023-04-03T03:47:58;-0.40;97.30
1075;DHT22;526;51.392;12.448;2023-04-03T03:50:26;-0.40;97.30
1075;DHT22;526;51.392;12.448;2023-04-03T03:52:52;-0.40;97.30
1075;DHT22;526;51.392;12.448;2023-04-03T03:55:17;-0.50;97.30
1075;DHT22;526;51.392;12.448;2023-04-03T03:57:43;-0.50;97.30
1075;DHT22;526;51.392;12.448;2023-04-03T04:00:09;-0.50;97.30
1075;DHT22;526;51.392;12.448;2023-04-03T04:02:38;-0.50;97.30
1075;DHT22;526;51.392;12.448;2023-04-03T04:05:03;-0.50;97.30
1075;DHT22;526;51.392;12.448;2023-04-03T04:07:29;-0.60;97.30
1075;DHT22;526;51.392;12.448;2023-04-03T04:09:55;-0.60;97.30
1075;DHT22;526;51.392;12.448;2023-04-03T04:12:20;-0.60;97.30
1075;DHT22;526;51.392;12.448;2023-04-03T04:14:46;-0.60;97.30
1075;DHT22;526;51.392;12.448;2023-04-03T04:17:13;-0.60;97.30
1075;DHT22;526;51.392;12.448;2023-04-03T04:19:38;-0.60;97.30
1075;DHT22;526;51.392;12.448;2023-04-03T04:22:04;-0.70;97.30
1075;DHT22;526;51.392;12.448;2023-04-03T04:24:30;-0.70;97.30
1075;DHT22;526;51.392;12.448;2023-04-03T04:26:55;-0.70;97.30
1075;DHT22;526;51.392;12.448;2023-04-03T04:29:21;-0.70;97.30
1075;DHT22;526;51.392;12.448;2023-04-03T04:31:48;-0.70;97.30
1075;DHT22;526;51.392;12.448;2023-04-03T04:34:14;-0.70;97.30
1075;DHT22;526;51.392;12.448;2023-04-03T04:36:40;-0.70;97.30
1075;DHT22;526;51.392;12.448;2023-04-03T04:39:05;-0.70;97.30
1075;DHT22;526;51.392;12.448;2023-04-03T04:41:31;-0.70;97.30
1075;DHT22;526;51.392;12.448;2023-04-03T04:43:57;-0.70;97.30
1075;DHT22;526;51.392;12.448;2023-04-03T04:46:23;-0.70;97.30
1075;DHT22;526;51.392;12.448;2023-04-03T04:48:48;-0.80;97.30
1075;DHT22;526;51.392;12.448;2023-04-03T04:51:14;-0.70;97.30
1075;DHT22;526;51.392;12.448;2023-04-03T04:53:40;-0.80;97.30
1075;DHT22;526;51.392;12.448;2023-04-03T04:56:06;-0.70;97.30
1075;DHT22;526;51.392;12.448;2023-04-03T04:58:32;-0.80;97.30
1075;DHT22;526;51.392;12.448;2023-04-03T05:01:02;-0.70;97.30
1075;DHT22;526;51.392;12.448;2023-04-03T05:03:28;-0.70;97.30
1075;DHT22;526;51.392;12.448;2023-04-03T05:05:54;-0.70;97.30
1075;DHT22;526;51.392;12.448;2023-04-03T05:08:19;-0.70;97.30
1075;DHT22;526;51.392;12.448;2023-04-03T05:10:46;-0.70;97.30
1075;DHT22;526;51.392;12.448;2023-04-03T05:13:11;-0.60;97.30
1075;DHT22;526;51.392;12.448;2023-04-03T05:15:37;-0.60;97.30
1075;DHT22;526;51.392;12.448;2023-04-03T05:18:02;-0.60;97.30
1075;DHT22;526;51.392;12.448;2023-04-03T05:20:28;-0.60;97.30
1075;DHT22;526;51.392;12.448;2023-04-03T05:22:53;-0.50;97.30
1075;DHT22;526;51.392;12.448;2023-04-03T05:25:19;-0.50;97.30
1075;DHT22;526;51.392;12.448;2023-04-03T05:27:45;-0.50;97.30
1075;DHT22;526;51.392;12.448;2023-04-03T05:30:11;-0.50;97.30
1075;DHT22;526;51.392;12.448;2023-04-03T05:32:36;-0.40;97.30
1075;DHT22;526;51.392;12.448;2023-04-03T05:35:03;-0.40;97.30
1075;DHT22;526;51.392;12.448;2023-04-03T05:37:28;-0.40;97.30
1075;DHT22;526;51.392;12.448;2023-04-03T05:39:54;-0.30;97.30
1075;DHT22;526;51.392;12.448;2023-04-03T05:42:19;-0.30;97.30
1075;DHT22;526;51.392;12.448;2023-04-03T05:44:45;-0.20;97.30
1075;DHT22;526;51.392;12.448;2023-04-03T05:47:12;-0.20;97.30
1075;DHT22;526;51.392;12.448;2023-04-03T05:49:38;-0.20;97.30
1075;DHT22;526;51.392;12.448;2023-04-03T05:52:17;-0.10;97.30
1075;DHT22;526;51.392;12.448;2023-04-03T05:54:45;-0.10;97.30
1075;DHT22;526;51.392;12.448;2023-04-03T05:57:14;-0.10;97.30
1075;DHT22;526;51.392;12.448;2023-04-03T05:59:42;0.00;97.30
1075;DHT22;526;51.392;12.448;2023-04-03T06:02:14;0.00;97.30
1075;DHT22;526;51.392;12.448;2023-04-03T06:04:42;0.00;97.30
1075;DHT22;526;51.392;12.448;2023-04-03T06:07:11;0.10;97.30
1075;DHT22;526;51.392;12.448;2023-04-03T06:09:37;0.10;97.30
1075;DHT22;526;51.392;12.448;2023-04-03T06:12:02;0.10;97.30
1075;DHT22;526;51.392;12.448;2023-04-03T06:14:28;0.20;97.30
1075;DHT22;526;51.392;12.448;2023-04-03T06:16:54;0.20;97.30
1075;DHT22;526;51.392;12.448;2023-04-03T06:19:21;0.30;97.30
1075;DHT22;526;51.392;12.448;2023-04-03T06:21:46;0.30;97.30
1075;DHT22;526;51.392;12.448;2023-04-03T06:24:16;0.40;97.30
1075;DHT22;526;51.392;12.448;2023-04-03T06:26:42;0.40;97.30
1075;DHT22;526;51.392;12.448;2023-04-03T06:29:08;0.50;97.30
1075;DHT22;526;51.392;12.448;2023-04-03T06:31:34;0.60;97.30
1075;DHT22;526;51.392;12.448;2023-04-03T06:34:01;0.60;97.30
1075;DHT22;526;51.392;12.448;2023-04-03T06:36:27;0.70;97.30
1075;DHT22;526;51.392;12.448;2023-04-03T06:38:52;0.80;97.30
1075;DHT22;526;51.392;12.448;2023-04-03T06:41:18;0.90;97.30
1075;DHT22;526;51.392;12.448;2023-04-03T06:43:44;1.00;97.30
1075;DHT22;526;51.392;12.448;2023-04-03T06:46:18;1.10;97.30
1075;DHT22;526;51.392;12.448;2023-04-03T06:48:44;1.10;97.30
1075;DHT22;526;51.392;12.448;2023-04-03T06:51:27;1.20;97.30
1075;DHT22;526;51.392;12.448;2023-04-03T06:53:55;1.30;97.30
1075;DHT22;526;51.392;12.448;2023-04-03T06:56:21;1.30;97.30
1075;DHT22;526;51.392;12.448;2023-04-03T06:58:47;1.40;97.30
1075;DHT22;526;51.392;12.448;2023-04-03T07:01:15;1.40;97.30
1075;DHT22;526;51.392;12.448;2023-04-03T07:03:45;1.50;97.30
1075;DHT22;526;51.392;12.448;2023-04-03T07:06:12;1.60;97.30
1075;DHT22;526;51.392;12.448;2023-04-03T07:08:38;1.70;97.30
1075;DHT22;526;51.392;12.448;2023-04-03T07:11:05;1.80;97.30
1075;DHT22;526;51.392;12.448;2023-04-03T07:13:34;1.90;97.30
1075;DHT22;526;51.392;12.448;2023-04-03T07:16:02;2.00;97.30
1075;DHT22;526;51.392;12.448;2023-04-03T07:18:28;2.00;97.30
1075;DHT22;526;51.392;12.448;2023-04-03T07:20:54;2.10;97.30
1075;DHT22;526;51.392;12.448;2023-04-03T07:23:21;2.20;97.30
1075;DHT22;526;51.392;12.448;2023-04-03T07:25:48;2.30;97.30
1075;DHT22;526;51.392;12.448;2023-04-03T07:28:15;2.40;97.30
1075;DHT22;526;51.392;12.448;2023-04-03T07:30:45;2.40;97.30
1075;DHT22;526;51.392;12.448;2023-04-03T07:33:11;2.40;97.30
1075;DHT22;526;51.392;12.448;2023-04-03T07:35:37;2.40;97.30
1075;DHT22;526;51.392;12.448;2023-04-03T07:38:02;2.40;97.30
1075;DHT22;526;51.392;12.448;2023-04-03T07:40:28;2.40;97.30
1075;DHT22;526;51.392;12.448;2023-04-03T07:42:53;2.50;97.00
1075;DHT22;526;51.392;12.448;2023-04-03T07:45:21;2.40;96.40
1075;DHT22;526;51.392;12.448;2023-04-03T07:47:48;2.50;96.70
1075;DHT22;526;51.392;12.448;2023-04-03T07:50:13;2.50;96.60
1075;DHT22;526;51.392;12.448;2023-04-03T07:52:39;2.70;96.80
1075;DHT22;526;51.392;12.448;2023-04-03T07:55:06;2.80;96.30
1075;DHT22;526;51.392;12.448;2023-04-03T07:57:31;2.80;95.00
1075;DHT22;526;51.392;12.448;2023-04-03T07:59:57;2.80;95.00
1075;DHT22;526;51.392;12.448;2023-04-03T08:02:22;2.90;95.00
1075;DHT22;526;51.392;12.448;2023-04-03T08:04:48;2.90;94.90
1075;DHT22;526;51.392;12.448;2023-04-03T08:07:13;2.90;95.10
1075;DHT22;526;51.392;12.448;2023-04-03T08:09:39;2.80;95.20
1075;DHT22;526;51.392;12.448;2023-04-03T08:12:05;2.80;95.00
1075;DHT22;526;51.392;12.448;2023-04-03T08:14:32;2.80;95.30
1075;DHT22;526;51.392;12.448;2023-04-03T08:16:59;3.00;95.10
1075;DHT22;526;51.392;12.448;2023-04-03T08:19:26;3.20;95.10
1075;DHT22;526;51.392;12.448;2023-04-03T08:21:53;3.20;93.80
1075;DHT22;526;51.392;12.448;2023-04-03T08:24:18;3.10;93.70
1075;DHT22;526;51.392;12.448;2023-04-03T08:26:44;3.10;93.60
1075;DHT22;526;51.392;12.448;2023-04-03T08:29:09;3.10;94.10
1075;DHT22;526;51.392;12.448;2023-04-03T08:31:35;3.10;94.70
1075;DHT22;526;51.392;12.448;2023-04-03T08:34:00;3.10;94.10
1075;DHT22;526;51.392;12.448;2023-04-03T08:36:27;3.40;93.00
1075;DHT22;526;51.392;12.448;2023-04-03T08:38:54;3.60;92.60
1075;DHT22;526;51.392;12.448;2023-04-03T08:41:35;3.90;92.10
1075;DHT22;526;51.392;12.448;2023-04-03T08:44:15;4.30;91.70
1075;DHT22;526;51.392;12.448;2023-04-03T08:47:04;4.50;90.50
1075;DHT22;526;51.392;12.448;2023-04-03T08:49:33;4.70;89.40
1075;DHT22;526;51.392;12.448;2023-04-03T08:52:04;4.90;89.30
1075;DHT22;526;51.392;12.448;2023-04-03T08:54:34;5.00;88.10
1075;DHT22;526;51.392;12.448;2023-04-03T08:57:03;5.10;88.20
1075;DHT22;526;51.392;12.448;2023-04-03T08:59:33;5.20;88.20
1075;DHT22;526;51.392;12.448;2023-04-03T09:02:03;5.20;87.50
1075;DHT22;526;51.392;12.448;2023-04-03T09:04:32;5.20;86.60
1075;DHT22;526;51.392;12.448;2023-04-03T09:07:06;5.20;87.60
1075;DHT22;526;51.392;12.448;2023-04-03T09:09:40;5.20;86.40
1075;DHT22;526;51.392;12.448;2023-04-03T09:15:17;4.50;85.30
1075;DHT22;526;51.392;12.448;2023-04-03T09:18:00;4.40;86.10
1075;DHT22;526;51.392;12.448;2023-04-03T09:23:24;4.40;87.50
1075;DHT22;526;51.392;12.448;2023-04-03T09:25:58;4.40;88.00
1075;DHT22;526;51.392;12.448;2023-04-03T09:28:26;4.50;88.50
1075;DHT22;526;51.392;12.448;2023-04-03T09:30:52;4.40;87.60
1075;DHT22;526;51.392;12.448;2023-04-03T09:33:18;4.20;85.80
1075;DHT22;526;51.392;12.448;2023-04-03T09:35:45;4.20;86.10
1075;DHT22;526;51.392;12.448;2023-04-03T09:40:43;4.40;86.20
1075;DHT22;526;51.392;12.448;2023-04-03T09:43:27;4.50;86.00
1075;DHT22;526;51.392;12.448;2023-04-03T09:45:54;4.50;86.50
1075;DHT22;526;51.392;12.448;2023-04-03T09:48:24;4.60;87.30
1075;DHT22;526;51.392;12.448;2023-04-03T09:53:43;4.30;87.20
1075;DHT22;526;51.392;12.448;2023-04-03T09:58:42;4.30;87.30
1075;DHT22;526;51.392;12.448;2023-04-03T10:04:16;4.60;86.80
1075;DHT22;526;51.392;12.448;2023-04-03T10:06:47;4.80;86.50
1075;DHT22;526;51.392;12.448;2023-04-03T10:09:22;4.80;85.70
1075;DHT22;526;51.392;12.448;2023-04-03T10:12:06;4.60;86.40
1075;DHT22;526;51.392;12.448;2023-04-03T10:14:34;4.70;87.30
1075;DHT22;526;51.392;12.448;2023-04-03T10:20:31;4.70;85.90
1075;DHT22;526;51.392;12.448;2023-04-03T10:28:20;5.30;86.90
1075;DHT22;526;51.392;12.448;2023-04-03T10:33:47;5.60;84.90
1075;DHT22;526;51.392;12.448;2023-04-03T10:39:25;5.60;83.40
1075;DHT22;526;51.392;12.448;2023-04-03T10:41:56;5.80;84.80
1075;DHT22;526;51.392;12.448;2023-04-03T10:47:30;6.10;83.70
1075;DHT22;526;51.392;12.448;2023-04-03T10:53:00;6.50;83.90
1075;DHT22;526;51.392;12.448;2023-04-03T10:55:47;6.80;83.00
1075;DHT22;526;51.392;12.448;2023-04-03T10:58:21;6.90;82.20
1075;DHT22;526;51.392;12.448;2023-04-03T11:00:52;6.80;81.40
1075;DHT22;526;51.392;12.448;2023-04-03T11:03:47;6.50;80.70
1075;DHT22;526;51.392;12.448;2023-04-03T11:06:15;6.40;81.10
1075;DHT22;526;51.392;12.448;2023-04-03T11:08:46;6.40;81.70
1075;DHT22;526;51.392;12.448;2023-04-03T11:11:24;6.60;81.50
1075;DHT22;526;51.392;12.448;2023-04-03T11:17:01;6.40;82.00
1075;DHT22;526;51.392;12.448;2023-04-03T11:19:35;6.60;82.40
1075;DHT22;526;51.392;12.448;2023-04-03T11:22:27;6.90;82.50
1075;DHT22;526;51.392;12.448;2023-04-03T11:27:43;6.70;81.40
1075;DHT22;526;51.392;12.448;2023-04-03T11:36:12;6.00;82.10
1075;DHT22;526;51.392;12.448;2023-04-03T11:38:46;6.10;82.30
1075;DHT22;526;51.392;12.448;2023-04-03T11:41:13;6.50;82.10
1075;DHT22;526;51.392;12.448;2023-04-03T11:44:00;6.90;81.70
1075;DHT22;526;51.392;12.448;2023-04-03T11:46:55;7.10;80.90
1075;DHT22;526;51.392;12.448;2023-04-03T12:05:54;6.80;82.20
1075;DHT22;526;51.392;12.448;2023-04-03T12:08:43;7.40;80.80
1075;DHT22;526;51.392;12.448;2023-04-03T12:11:22;7.50;80.90
1075;DHT22;526;51.392;12.448;2023-04-03T12:43:18;6.20;82.60
1075;DHT22;526;51.392;12.448;2023-04-03T12:46:04;6.10;82.80
1075;DHT22;526;51.392;12.448;2023-04-03T12:48:33;6.20;83.30
1075;DHT22;526;51.392;12.448;2023-04-03T12:51:02;6.20;82.30
1075;DHT22;526;51.392;12.448;2023-04-03T12:53:32;6.10;80.70
1075;DHT22;526;51.392;12.448;2023-04-03T12:58:46;6.10;82.30
1075;DHT22;526;51.392;12.448;2023-04-03T13:01:17;6.20;81.90
1075;DHT22;526;51.392;12.448;2023-04-03T13:03:48;6.20;81.60
1075;DHT22;526;51.392;12.448;2023-04-03T13:06:18;6.30;81.90
1075;DHT22;526;51.392;12.448;2023-04-03T13:08:49;6.20;81.20
1075;DHT22;526;51.392;12.448;2023-04-03T13:11:15;6.10;81.70
1075;DHT22;526;51.392;12.448;2023-04-03T13:14:00;6.00;81.80
1075;DHT22;526;51.392;12.448;2023-04-03T13:16:27;6.00;82.10
1075;DHT22;526;51.392;12.448;2023-04-03T13:18:54;6.00;81.40
1075;DHT22;526;51.392;12.448;2023-04-03T13:21:30;6.00;81.00
1075;DHT22;526;51.392;12.448;2023-04-03T13:24:01;5.90;81.60
1075;DHT22;526;51.392;12.448;2023-04-03T13:26:31;5.90;80.70
1075;DHT22;526;51.392;12.448;2023-04-03T13:29:02;5.90;80.00
1075;DHT22;526;51.392;12.448;2023-04-03T13:31:31;6.00;80.50
1075;DHT22;526;51.392;12.448;2023-04-03T13:36:40;6.10;80.60
1075;DHT22;526;51.392;12.448;2023-04-03T13:39:28;6.10;80.50
1075;DHT22;526;51.392;12.448;2023-04-03T13:41:57;6.00;80.50
1075;DHT22;526;51.392;12.448;2023-04-03T13:46:57;6.10;80.40
1075;DHT22;526;51.392;12.448;2023-04-03T13:51:51;6.10;81.10
1075;DHT22;526;51.392;12.448;2023-04-03T13:54:23;6.10;81.10
1075;DHT22;526;51.392;12.448;2023-04-03T13:56:54;5.90;82.20
1075;DHT22;526;51.392;12.448;2023-04-03T14:04:54;5.70;82.20
1075;DHT22;526;51.392;12.448;2023-04-03T14:07:24;5.70;82.70
1075;DHT22;526;51.392;12.448;2023-04-03T14:09:50;5.60;82.60
1075;DHT22;526;51.392;12.448;2023-04-03T14:12:30;5.60;81.90
1075;DHT22;526;51.392;12.448;2023-04-03T14:14:56;5.60;82.90
1075;DHT22;526;51.392;12.448;2023-04-03T14:17:25;5.60;82.90
1075;DHT22;526;51.392;12.448;2023-04-03T14:19:53;5.50;82.20
1075;DHT22;526;51.392;12.448;2023-04-03T14:22:27;5.40;81.60
1075;DHT22;526;51.392;12.448;2023-04-03T14:24:54;5.40;82.70
1075;DHT22;526;51.392;12.448;2023-04-03T14:27:21;5.30;83.60
1075;DHT22;526;51.392;12.448;2023-04-03T14:29:49;5.30;83.60
1075;DHT22;526;51.392;12.448;2023-04-03T14:32:16;5.30;83.20
1075;DHT22;526;51.392;12.448;2023-04-03T14:34:44;5.30;83.20
1075;DHT22;526;51.392;12.448;2023-04-03T14:37:17;5.20;82.20
1075;DHT22;526;51.392;12.448;2023-04-03T14:39:44;5.10;82.10
1075;DHT22;526;51.392;12.448;2023-04-03T14:42:16;5.10;81.70
1075;DHT22;526;51.392;12.448;2023-04-03T14:44:42;5.00;82.10
1075;DHT22;526;51.392;12.448;2023-04-03T14:47:12;5.00;82.40
1075;DHT22;526;51.392;12.448;2023-04-03T14:49:39;5.00;82.90
1075;DHT22;526;51.392;12.448;2023-04-03T14:52:05;5.10;82.90
1075;DHT22;526;51.392;12.448;2023-04-03T14:54:31;5.10;83.50
1075;DHT22;526;51.392;12.448;2023-04-03T14:56:58;5.10;82.50
1075;DHT22;526;51.392;12.448;2023-04-03T14:59:25;5.10;82.20
1075;DHT22;526;51.392;12.448;2023-04-03T15:01:50;5.20;82.90
1075;DHT22;526;51.392;12.448;2023-04-03T15:04:19;5.20;82.20
1075;DHT22;526;51.392;12.448;2023-04-03T15:06:46;5.10;81.70
1075;DHT22;526;51.392;12.448;2023-04-03T15:09:26;5.10;81.20
1075;DHT22;526;51.392;12.448;2023-04-03T15:11:56;5.00;80.80
1075;DHT22;526;51.392;12.448;2023-04-03T15:14:24;5.00;81.60
1075;DHT22;526;51.392;12.448;2023-04-03T15:16:52;5.00;81.90
1075;DHT22;526;51.392;12.448;2023-04-03T15:19:17;5.00;81.70
1075;DHT22;526;51.392;12.448;2023-04-03T15:21:43;5.00;80.60
1075;DHT22;526;51.392;12.448;2023-04-03T15:24:09;4.90;80.80
1075;DHT22;526;51.392;12.448;2023-04-03T15:26:34;4.90;81.50
1075;DHT22;526;51.392;12.448;2023-04-03T15:29:00;4.90;82.30
1075;DHT22;526;51.392;12.448;2023-04-03T15:31:26;4.90;82.00
1075;DHT22;526;51.392;12.448;2023-04-03T15:33:52;4.80;81.70
1075;DHT22;526;51.392;12.448;2023-04-03T15:36:17;4.80;82.40
1075;DHT22;526;51.392;12.448;2023-04-03T15:38:45;4.80;82.10
1075;DHT22;526;51.392;12.448;2023-04-03T15:41:11;4.80;82.40
1075;DHT22;526;51.392;12.448;2023-04-03T15:43:39;4.70;82.60
1075;DHT22;526;51.392;12.448;2023-04-03T15:46:05;4.80;82.80
1075;DHT22;526;51.392;12.448;2023-04-03T15:48:33;4.80;82.90
1075;DHT22;526;51.392;12.448;2023-04-03T15:51:00;4.80;82.30
1075;DHT22;526;51.392;12.448;2023-04-03T15:53:26;4.80;81.80
1075;DHT22;526;51.392;12.448;2023-04-03T15:55:51;4.80;81.50
1075;DHT22;526;51.392;12.448;2023-04-03T15:58:17;4.70;81.40
1075;DHT22;526;51.392;12.448;2023-04-03T16:00:42;4.70;81.90
1075;DHT22;526;51.392;12.448;2023-04-03T16:03:11;4.70;82.50
1075;DHT22;526;51.392;12.448;2023-04-03T16:05:39;4.70;81.90
1075;DHT22;526;51.392;12.448;2023-04-03T16:08:06;4.60;82.50
1075;DHT22;526;51.392;12.448;2023-04-03T16:10:33;4.60;82.70
1075;DHT22;526;51.392;12.448;2023-04-03T16:12:59;4.50;82.60
1075;DHT22;526;51.392;12.448;2023-04-03T16:15:26;4.60;83.10
1075;DHT22;526;51.392;12.448;2023-04-03T16:17:52;4.60;84.00
1075;DHT22;526;51.392;12.448;2023-04-03T16:20:18;4.60;83.70
1075;DHT22;526;51.392;12.448;2023-04-03T16:22:44;4.60;84.20
1075;DHT22;526;51.392;12.448;2023-04-03T16:25:10;4.60;83.30
1075;DHT22;526;51.392;12.448;2023-04-03T16:27:54;4.60;83.80
1075;DHT22;526;51.392;12.448;2023-04-03T16:30:23;4.50;83.80
1075;DHT22;526;51.392;12.448;2023-04-03T16:32:51;4.50;84.40
1075;DHT22;526;51.392;12.448;2023-04-03T16:35:17;4.50;84.40
1075;DHT22;526;51.392;12.448;2023-04-03T16:37:47;4.50;84.60
1075;DHT22;526;51.392;12.448;2023-04-03T16:40:23;4.40;84.30
1075;DHT22;526;51.392;12.448;2023-04-03T16:46:01;4.40;85.30
1075;DHT22;526;51.392;12.448;2023-04-03T16:48:30;4.40;85.40
1075;DHT22;526;51.392;12.448;2023-04-03T16:50:56;4.30;84.80
1075;DHT22;526;51.392;12.448;2023-04-03T16:53:22;4.30;85.00
1075;DHT22;526;51.392;12.448;2023-04-03T16:55:52;4.30;85.10
1075;DHT22;526;51.392;12.448;2023-04-03T16:58:18;4.30;85.60
1075;DHT22;526;51.392;12.448;2023-04-03T17:00:48;4.30;85.60
1075;DHT22;526;51.392;12.448;2023-04-03T17:03:18;4.30;86.00
1075;DHT22;526;51.392;12.448;2023-04-03T17:05:47;4.30;85.80
1075;DHT22;526;51.392;12.448;2023-04-03T17:08:12;4.30;86.00
1075;DHT22;526;51.392;12.448;2023-04-03T17:10:39;4.30;86.30
1075;DHT22;526;51.392;12.448;2023-04-03T17:13:05;4.30;86.20
1075;DHT22;526;51.392;12.448;2023-04-03T17:15:30;4.20;86.70
1075;DHT22;526;51.392;12.448;2023-04-03T17:17:56;4.20;86.70
1075;DHT22;526;51.392;12.448;2023-04-03T17:20:21;4.20;87.20
1075;DHT22;526;51.392;12.448;2023-04-03T17:22:47;4.20;87.20
1075;DHT22;526;51.392;12.448;2023-04-03T17:25:13;4.20;87.60
1075;DHT22;526;51.392;12.448;2023-04-03T17:27:40;4.20;87.70
1075;DHT22;526;51.392;12.448;2023-04-03T17:30:05;4.20;87.50
1075;DHT22;526;51.392;12.448;2023-04-03T17:32:31;4.30;87.50
1075;DHT22;526;51.392;12.448;2023-04-03T17:34:57;4.20;87.70
1075;DHT22;526;51.392;12.448;2023-04-03T17:37:22;4.20;88.00
1075;DHT22;526;51.392;12.448;2023-04-03T17:39:48;4.20;86.50
1075;DHT22;526;51.392;12.448;2023-04-03T17:42:14;4.20;86.00
1075;DHT22;526;51.392;12.448;2023-04-03T17:44:41;4.20;86.60
1075;DHT22;526;51.392;12.448;2023-04-03T17:47:06;4.20;86.90
1075;DHT22;526;51.392;12.448;2023-04-03T17:49:32;4.20;87.40
1075;DHT22;526;51.392;12.448;2023-04-03T17:51:58;4.20;87.40
1075;DHT22;526;51.392;12.448;2023-04-03T17:54:23;4.20;87.80
1075;DHT22;526;51.392;12.448;2023-04-03T17:56:49;4.20;86.40
1075;DHT22;526;51.392;12.448;2023-04-03T17:59:15;4.10;86.10
1075;DHT22;526;51.392;12.448;2023-04-03T18:02:11;4.10;85.50
1075;DHT22;526;51.392;12.448;2023-04-03T18:04:40;4.10;84.50
1075;DHT22;526;51.392;12.448;2023-04-03T18:07:05;4.00;84.90
1075;DHT22;526;51.392;12.448;2023-04-03T18:09:34;4.00;85.30
1075;DHT22;526;51.392;12.448;2023-04-03T18:12:03;4.00;85.10
1075;DHT22;526;51.392;12.448;2023-04-03T18:14:29;4.00;84.30
1075;DHT22;526;51.392;12.448;2023-04-03T18:16:56;3.90;84.50
1075;DHT22;526;51.392;12.448;2023-04-03T18:19:24;3.90;84.10
1075;DHT22;526;51.392;12.448;2023-04-03T18:21:56;3.90;84.10